Time,TemperatureF,DewpointF,PressureIn,WindDirection,WindDirectionDegrees,WindSpeedMPH,WindSpeedGustMPH,Humidity,HourlyPrecipIn,Conditions,Clouds,dailyrainin,SolarRadiationWatts/m^2,SoftwareType,DateUTC
2013-01-18 00:02:00,-16.0,-23.0,-100.00,ESE,116,2.0,4.0,70,0.00,,,0.00,0.000000,,2013-01-18 06:02:00,
2013-01-18 00:33:00,-17.0,-25.0,-100.00,SSE,163,1.0,5.0,67,0.00,,,0.00,0.000000,,2013-01-18 06:33:00,
2013-01-18 00:43:00,-17.0,-25.0,-100.00,SSE,163,1.0,5.0,67,0.00,,,0.00,0.000000,,2013-01-18 06:43:00,
2013-01-18 00:53:00,-17.0,-25.0,-100.00,SSE,163,1.0,5.0,67,0.00,,,0.00,0.000000,,2013-01-18 06:53:00,
2013-01-18 01:02:00,-17.0,-25.0,-100.00,SSE,163,1.0,5.0,67,0.00,,,0.00,0.000000,,2013-01-18 07:02:00,
2013-01-18 01:33:00,-17.0,-25.0,-100.00,SSW,202,1.0,3.0,66,0.00,,,0.00,0.000000,,2013-01-18 07:33:00,
2013-01-18 01:42:00,-17.0,-25.0,-100.00,SSW,202,1.0,3.0,66,0.00,,,0.00,0.000000,,2013-01-18 07:42:00,
2013-01-18 01:52:00,-17.0,-25.0,-100.00,SSW,202,1.0,3.0,66,0.00,,,0.00,0.000000,,2013-01-18 07:52:00,
2013-01-18 02:02:00,-17.0,-25.0,-100.00,SSW,202,1.0,3.0,66,0.00,,,0.00,0.000000,,2013-01-18 08:02:00,
2013-01-18 02:22:00,-14.0,-21.0,-100.00,SSE,159,1.0,2.0,69,0.00,,,0.00,0.000000,,2013-01-18 08:22:00,
2013-01-18 02:33:00,-14.0,-21.0,-100.00,SSE,159,1.0,2.0,69,0.00,,,0.00,0.000000,,2013-01-18 08:33:00,
2013-01-18 02:43:00,-14.0,-21.0,-100.00,SSE,159,1.0,2.0,69,0.00,,,0.00,0.000000,,2013-01-18 08:43:00,
2013-01-18 02:53:00,-14.0,-21.0,-100.00,SSE,159,1.0,2.0,69,0.00,,,0.00,0.000000,,2013-01-18 08:53:00,
2013-01-18 03:02:00,-14.0,-21.0,-100.00,SSE,159,1.0,2.0,69,0.00,,,0.00,0.000000,,2013-01-18 09:02:00,
2013-01-18 03:22:00,-8.0,-14.0,-100.00,East,101,1.0,3.0,74,0.00,,,0.00,0.000000,,2013-01-18 09:22:00,
2013-01-18 03:33:00,-8.0,-14.0,-100.00,East,101,1.0,3.0,74,0.00,,,0.00,0.000000,,2013-01-18 09:33:00,
2013-01-18 03:43:00,-8.0,-14.0,-100.00,East,101,1.0,3.0,74,0.00,,,0.00,0.000000,,2013-01-18 09:43:00,
2013-01-18 03:53:00,-8.0,-14.0,-100.00,East,101,1.0,3.0,74,0.00,,,0.00,0.000000,,2013-01-18 09:53:00,
2013-01-18 04:02:00,-8.0,-14.0,-100.00,East,101,1.0,3.0,74,0.00,,,0.00,0.000000,,2013-01-18 10:02:00,
2013-01-18 04:22:00,-5.0,-11.0,-100.00,East,101,2.0,4.0,74,0.00,,,0.00,0.000000,,2013-01-18 10:22:00,
2013-01-18 04:33:00,-5.0,-11.0,-100.00,East,101,2.0,4.0,74,0.00,,,0.00,0.000000,,2013-01-18 10:33:00,
2013-01-18 04:43:00,-5.0,-11.0,-100.00,East,101,2.0,4.0,74,0.00,,,0.00,0.000000,,2013-01-18 10:43:00,
2013-01-18 04:53:00,-5.0,-11.0,-100.00,East,101,2.0,4.0,74,0.00,,,0.00,0.000000,,2013-01-18 10:53:00,
2013-01-18 05:02:00,-5.0,-11.0,-100.00,East,101,2.0,4.0,74,0.00,,,0.00,0.000000,,2013-01-18 11:02:00,
2013-01-18 05:23:00,-1.0,-7.0,-100.00,SE,137,5.0,6.0,74,0.00,,,0.00,0.000000,,2013-01-18 11:23:00,
2013-01-18 05:33:00,-1.0,-7.0,-100.00,SE,137,5.0,6.0,74,0.00,,,0.00,0.000000,,2013-01-18 11:33:00,
2013-01-18 05:42:00,-1.0,-7.0,-100.00,SE,137,5.0,6.0,74,0.00,,,0.00,0.000000,,2013-01-18 11:42:00,
2013-01-18 05:53:00,-1.0,-7.0,-100.00,SE,137,5.0,6.0,74,0.00,,,0.00,0.000000,,2013-01-18 11:53:00,
2013-01-18 06:02:00,-1.0,-7.0,-100.00,SE,137,5.0,6.0,74,0.00,,,0.00,0.000000,,2013-01-18 12:02:00,
2013-01-18 06:33:00,0.0,-6.0,-100.00,East,95,3.0,6.0,76,0.00,,,0.00,0.000000,,2013-01-18 12:33:00,
2013-01-18 06:43:00,0.0,-6.0,-100.00,East,95,3.0,6.0,76,0.00,,,0.00,0.000000,,2013-01-18 12:43:00,
2013-01-18 06:53:00,0.0,-6.0,-100.00,East,95,3.0,6.0,76,0.00,,,0.00,0.000000,,2013-01-18 12:53:00,
2013-01-18 07:03:00,0.0,-6.0,-100.00,East,95,3.0,6.0,76,0.00,,,0.00,0.000000,,2013-01-18 13:03:00,
2013-01-18 07:33:00,1.0,-4.0,-100.00,ENE,57,3.0,5.0,78,0.02,,,0.02,0.000000,,2013-01-18 13:33:00,
2013-01-18 07:43:00,1.0,-4.0,-100.00,ENE,57,3.0,5.0,78,0.02,,,0.02,0.000000,,2013-01-18 13:43:00,
2013-01-18 07:53:00,1.0,-4.0,-100.00,ENE,57,3.0,5.0,78,0.02,,,0.02,0.000000,,2013-01-18 13:53:00,
2013-01-18 08:03:00,1.0,-4.0,-100.00,ENE,57,3.0,5.0,78,0.02,,,0.02,0.000000,,2013-01-18 14:03:00,
2013-01-18 08:34:00,3.0,-2.0,-100.00,East,96,4.0,6.0,79,0.00,,,0.02,0.000000,,2013-01-18 14:34:00,
2013-01-18 08:43:00,3.0,-2.0,-100.00,East,96,4.0,6.0,79,0.00,,,0.02,0.000000,,2013-01-18 14:43:00,
2013-01-18 08:53:00,3.0,-2.0,-100.00,East,96,4.0,6.0,79,0.00,,,0.02,0.000000,,2013-01-18 14:53:00,
2013-01-18 09:03:00,3.0,-2.0,-100.00,East,96,4.0,6.0,79,0.00,,,0.02,0.000000,,2013-01-18 15:03:00,
2013-01-18 09:34:00,6.0,1.0,-100.00,ESE,102,3.0,5.0,80,0.00,,,0.02,6.000000,,2013-01-18 15:34:00,
2013-01-18 09:43:00,6.0,1.0,-100.00,ESE,102,3.0,5.0,80,0.00,,,0.02,6.000000,,2013-01-18 15:43:00,
2013-01-18 09:54:00,6.0,1.0,-100.00,ESE,102,3.0,5.0,80,0.00,,,0.02,6.000000,,2013-01-18 15:54:00,
2013-01-18 10:03:00,6.0,1.0,-100.00,ESE,102,3.0,5.0,80,0.00,,,0.02,6.000000,,2013-01-18 16:03:00,
2013-01-18 10:23:00,10.0,5.0,-100.00,ESE,114,3.0,6.0,80,0.00,,,0.02,25.000000,,2013-01-18 16:23:00,
2013-01-18 10:33:00,10.0,5.0,-100.00,ESE,114,3.0,6.0,80,0.00,,,0.02,25.000000,,2013-01-18 16:33:00,
2013-01-18 10:43:00,10.0,5.0,-100.00,ESE,114,3.0,6.0,80,0.00,,,0.02,25.000000,,2013-01-18 16:43:00,
2013-01-18 10:53:00,10.0,5.0,-100.00,ESE,114,3.0,6.0,80,0.00,,,0.02,25.000000,,2013-01-18 16:53:00,
2013-01-18 11:03:00,10.0,5.0,-100.00,ESE,114,3.0,6.0,80,0.00,,,0.02,25.000000,,2013-01-18 17:03:00,
2013-01-18 11:34:00,13.0,7.0,-100.00,SE,128,7.0,11.0,78,0.00,,,0.02,42.000000,,2013-01-18 17:34:00,
2013-01-18 11:43:00,13.0,7.0,-100.00,SE,128,7.0,11.0,78,0.00,,,0.02,42.000000,,2013-01-18 17:43:00,
2013-01-18 11:53:00,13.0,7.0,-100.00,SE,128,7.0,11.0,78,0.00,,,0.02,42.000000,,2013-01-18 17:53:00,
2013-01-18 12:03:00,13.0,7.0,-100.00,SE,128,7.0,11.0,78,0.00,,,0.02,42.000000,,2013-01-18 18:03:00,
2013-01-18 12:33:00,15.0,9.0,-100.00,SE,127,7.0,12.0,76,0.00,,,0.02,44.000000,,2013-01-18 18:33:00,
2013-01-18 12:43:00,15.0,9.0,-100.00,SE,127,7.0,12.0,76,0.00,,,0.02,44.000000,,2013-01-18 18:43:00,
2013-01-18 12:53:00,15.0,9.0,-100.00,SE,127,7.0,12.0,76,0.00,,,0.02,44.000000,,2013-01-18 18:53:00,
2013-01-18 13:03:00,15.0,9.0,-100.00,SE,127,7.0,12.0,76,0.00,,,0.02,44.000000,,2013-01-18 19:03:00,
2013-01-18 13:33:00,16.0,11.0,-100.00,SE,134,8.0,11.0,80,0.00,,,0.02,50.000000,,2013-01-18 19:33:00,
2013-01-18 13:43:00,16.0,11.0,-100.00,SE,134,8.0,11.0,80,0.00,,,0.02,50.000000,,2013-01-18 19:43:00,
2013-01-18 13:53:00,16.0,11.0,-100.00,SE,134,8.0,11.0,80,0.00,,,0.02,50.000000,,2013-01-18 19:53:00,
2013-01-18 14:03:00,16.0,11.0,-100.00,SE,134,8.0,11.0,80,0.00,,,0.02,50.000000,,2013-01-18 20:03:00,
2013-01-18 14:33:00,17.0,12.0,-100.00,ESE,118,5.0,10.0,79,0.00,,,-99.99,38.000000,,2013-01-18 20:33:00,
2013-01-18 14:43:00,17.0,12.0,-100.00,ESE,118,5.0,10.0,79,0.00,,,-99.99,38.000000,,2013-01-18 20:43:00,
2013-01-18 14:53:00,17.0,12.0,-100.00,ESE,118,5.0,10.0,79,0.00,,,-99.99,38.000000,,2013-01-18 20:53:00,
2013-01-18 15:03:00,17.0,12.0,-100.00,ESE,118,5.0,10.0,79,0.00,,,-99.99,38.000000,,2013-01-18 21:03:00,
2013-01-18 15:33:00,19.0,15.0,-100.00,ENE,71,2.0,7.0,85,0.01,,,0.03,25.000000,,2013-01-18 21:33:00,
2013-01-18 15:43:00,19.0,15.0,-100.00,ENE,71,2.0,7.0,85,0.01,,,0.03,25.000000,,2013-01-18 21:43:00,
2013-01-18 15:53:00,19.0,15.0,-100.00,ENE,71,2.0,7.0,85,0.01,,,0.03,25.000000,,2013-01-18 21:53:00,
2013-01-18 16:03:00,19.0,15.0,-100.00,ENE,71,2.0,7.0,85,0.01,,,0.03,25.000000,,2013-01-18 22:03:00,
2013-01-18 16:33:00,18.0,14.0,-100.00,East,100,4.0,6.0,85,0.01,,,0.04,19.000000,,2013-01-18 22:33:00,
2013-01-18 16:43:00,18.0,14.0,-100.00,East,100,4.0,6.0,85,0.01,,,0.04,19.000000,,2013-01-18 22:43:00,
2013-01-18 16:53:00,18.0,14.0,-100.00,East,100,4.0,6.0,85,0.01,,,0.04,19.000000,,2013-01-18 22:53:00,
2013-01-18 17:03:00,18.0,14.0,-100.00,East,100,4.0,6.0,85,0.01,,,0.04,19.000000,,2013-01-18 23:03:00,
2013-01-18 17:23:00,18.0,14.0,-100.00,ESE,115,3.0,6.0,85,0.00,,,0.04,3.000000,,2013-01-18 23:23:00,
2013-01-18 17:33:00,18.0,14.0,-100.00,ESE,115,3.0,6.0,85,0.00,,,0.04,3.000000,,2013-01-18 23:33:00,
2013-01-18 17:43:00,18.0,14.0,-100.00,ESE,115,3.0,6.0,85,0.00,,,0.04,3.000000,,2013-01-18 23:43:00,
2013-01-18 17:53:00,18.0,14.0,-100.00,ESE,115,3.0,6.0,85,0.00,,,0.04,3.000000,,2013-01-18 23:53:00,
2013-01-18 18:02:00,18.0,14.0,-100.00,ESE,115,3.0,6.0,85,0.00,,,0.04,3.000000,,2013-01-19 00:02:00,
2013-01-18 18:23:00,18.0,15.0,-100.00,NNE,19,2.0,4.0,88,0.00,,,0.04,0.000000,,2013-01-19 00:23:00,
2013-01-18 18:33:00,18.0,15.0,-100.00,NNE,19,2.0,4.0,88,0.00,,,0.04,0.000000,,2013-01-19 00:33:00,
2013-01-18 18:43:00,18.0,15.0,-100.00,NNE,19,2.0,4.0,88,0.00,,,0.04,0.000000,,2013-01-19 00:43:00,
2013-01-18 18:53:00,18.0,15.0,-100.00,NNE,19,2.0,4.0,88,0.00,,,0.04,0.000000,,2013-01-19 00:53:00,
2013-01-18 19:02:00,18.0,15.0,-100.00,NNE,19,2.0,4.0,88,0.00,,,0.04,0.000000,,2013-01-19 01:02:00,
2013-01-18 19:23:00,17.0,14.0,-100.00,East,95,3.0,5.0,89,0.00,,,0.04,0.000000,,2013-01-19 01:23:00,
2013-01-18 19:33:00,17.0,14.0,-100.00,East,95,3.0,5.0,89,0.00,,,0.04,0.000000,,2013-01-19 01:33:00,
2013-01-18 19:43:00,17.0,14.0,-100.00,East,95,3.0,5.0,89,0.00,,,0.04,0.000000,,2013-01-19 01:43:00,
2013-01-18 19:53:00,17.0,14.0,-100.00,East,95,3.0,5.0,89,0.00,,,0.04,0.000000,,2013-01-19 01:53:00,
2013-01-18 20:02:00,17.0,14.0,-100.00,East,95,3.0,5.0,89,0.00,,,0.04,0.000000,,2013-01-19 02:02:00,
2013-01-18 20:33:00,17.0,14.0,-100.00,ENE,62,2.0,4.0,89,0.00,,,0.04,0.000000,,2013-01-19 02:33:00,
2013-01-18 20:43:00,17.0,14.0,-100.00,ENE,62,2.0,4.0,89,0.00,,,0.04,0.000000,,2013-01-19 02:43:00,
2013-01-18 20:53:00,17.0,14.0,-100.00,ENE,62,2.0,4.0,89,0.00,,,0.04,0.000000,,2013-01-19 02:53:00,
2013-01-18 21:03:00,17.0,14.0,-100.00,ENE,62,2.0,4.0,89,0.00,,,0.04,0.000000,,2013-01-19 03:03:00,
2013-01-18 21:33:00,17.0,14.0,-100.00,East,90,4.0,6.0,88,0.00,,,0.04,0.000000,,2013-01-19 03:33:00,
2013-01-18 21:44:00,17.0,14.0,-100.00,East,90,4.0,6.0,88,0.00,,,0.04,0.000000,,2013-01-19 03:44:00,
2013-01-18 21:53:00,17.0,14.0,-100.00,East,90,4.0,6.0,88,0.00,,,0.04,0.000000,,2013-01-19 03:53:00,
2013-01-18 22:02:00,17.0,14.0,-100.00,East,90,4.0,6.0,88,0.00,,,0.04,0.000000,,2013-01-19 04:02:00,
2013-01-18 22:33:00,17.0,14.0,-100.00,East,93,3.0,6.0,88,0.00,,,0.04,0.000000,,2013-01-19 04:33:00,
2013-01-18 22:43:00,17.0,14.0,-100.00,East,93,3.0,6.0,88,0.00,,,0.04,0.000000,,2013-01-19 04:43:00,
2013-01-18 22:53:00,17.0,14.0,-100.00,East,93,3.0,6.0,88,0.00,,,0.04,0.000000,,2013-01-19 04:53:00,
2013-01-18 23:03:00,17.0,14.0,-100.00,East,93,3.0,6.0,88,0.00,,,0.04,0.000000,,2013-01-19 05:03:00,
2013-01-18 23:23:00,16.0,13.0,-100.00,East,95,2.0,5.0,88,0.00,,,0.04,0.000000,,2013-01-19 05:23:00,
2013-01-18 23:33:00,16.0,13.0,-100.00,East,95,2.0,5.0,88,0.00,,,0.04,0.000000,,2013-01-19 05:33:00,
2013-01-18 23:43:00,16.0,13.0,-100.00,East,95,2.0,5.0,88,0.00,,,0.04,0.000000,,2013-01-19 05:43:00,
2013-01-18 23:53:00,16.0,13.0,-100.00,East,95,2.0,5.0,88,0.00,,,0.04,0.000000,,2013-01-19 05:53:00,